Terminal Aerodrome Forecast
Issued by NWS

Home | Current Version | Previous Version | Text Only | Print | Product List | Glossary On
Versions: 1 2 3 4 5 6 7 8 9 10 11 12
000
FTUS42 TJSJ 251739
TAFJPS
TAF
TJPS 251739Z 2518/2618 06005KT P6SM FEW030
     FM252300 05007KT P6SM VCSH SCT022 BKN060
     FM261500 14014KT P6SM FEW030 SCT060
      AMD NOT SKED TIL 260300=

USA.gov is the U.S. government's official web portal to all federal, state and local government web resources and services.